sensor_id;sensor_type;location;lat;lon;timestamp;P1;durP1;ratioP1;P2;durP2;ratioP2
38591;SDS011;24356;48.460;11.450;2023-04-05T00:00:40;8.15;;;4.70;;
38591;SDS011;24356;48.460;11.450;2023-04-05T00:03:06;8.77;;;4.57;;
38591;SDS011;24356;48.460;11.450;2023-04-05T00:05:34;8.40;;;4.38;;
38591;SDS011;24356;48.460;11.450;2023-04-05T00:08:04;11.10;;;5.22;;
38591;SDS011;24356;48.460;11.450;2023-04-05T00:10:37;10.27;;;4.80;;
38591;SDS011;24356;48.460;11.450;2023-04-05T00:13:03;9.70;;;4.72;;
38591;SDS011;24356;48.460;11.450;2023-04-05T00:15:29;13.80;;;4.70;;
38591;SDS011;24356;48.460;11.450;2023-04-05T00:17:57;8.80;;;4.60;;
38591;SDS011;24356;48.460;11.450;2023-04-05T00:20:24;7.70;;;4.88;;
38591;SDS011;24356;48.460;11.450;2023-04-05T00:22:49;9.35;;;4.53;;
38591;SDS011;24356;48.460;11.450;2023-04-05T00:25:15;9.27;;;4.93;;
38591;SDS011;24356;48.460;11.450;2023-04-05T00:27:44;10.27;;;4.57;;
38591;SDS011;24356;48.460;11.450;2023-04-05T00:30:10;7.15;;;4.50;;
38591;SDS011;24356;48.460;11.450;2023-04-05T00:32:36;7.10;;;4.63;;
38591;SDS011;24356;48.460;11.450;2023-04-05T00:35:02;9.30;;;4.88;;
38591;SDS011;24356;48.460;11.450;2023-04-05T00:37:28;6.40;;;4.40;;
38591;SDS011;24356;48.460;11.450;2023-04-05T00:39:53;9.10;;;4.80;;
38591;SDS011;24356;48.460;11.450;2023-04-05T00:42:21;8.15;;;4.90;;
38591;SDS011;24356;48.460;11.450;2023-04-05T00:44:47;8.55;;;4.90;;
38591;SDS011;24356;48.460;11.450;2023-04-05T00:47:12;9.18;;;4.90;;
38591;SDS011;24356;48.460;11.450;2023-04-05T00:49:38;7.95;;;4.82;;
38591;SDS011;24356;48.460;11.450;2023-04-05T00:52:04;7.38;;;4.70;;
38591;SDS011;24356;48.460;11.450;2023-04-05T00:54:30;9.07;;;5.10;;
38591;SDS011;24356;48.460;11.450;2023-04-05T00:56:57;8.20;;;4.68;;
38591;SDS011;24356;48.460;11.450;2023-04-05T00:59:23;8.93;;;5.07;;
38591;SDS011;24356;48.460;11.450;2023-04-05T01:02:00;8.68;;;4.70;;
38591;SDS011;24356;48.460;11.450;2023-04-05T01:04:41;9.30;;;4.75;;
38591;SDS011;24356;48.460;11.450;2023-04-05T01:10:09;8.77;;;4.75;;
38591;SDS011;24356;48.460;11.450;2023-04-05T01:12:38;10.02;;;5.10;;
38591;SDS011;24356;48.460;11.450;2023-04-05T01:15:05;7.75;;;4.90;;
38591;SDS011;24356;48.460;11.450;2023-04-05T01:17:32;11.68;;;5.25;;
38591;SDS011;24356;48.460;11.450;2023-04-05T01:20:04;6.88;;;4.35;;
38591;SDS011;24356;48.460;11.450;2023-04-05T01:28:12;9.90;;;4.97;;
38591;SDS011;24356;48.460;11.450;2023-04-05T01:30:57;9.18;;;4.80;;
38591;SDS011;24356;48.460;11.450;2023-04-05T01:36:05;9.25;;;4.68;;
38591;SDS011;24356;48.460;11.450;2023-04-05T01:38:34;7.47;;;4.93;;
38591;SDS011;24356;48.460;11.450;2023-04-05T01:41:03;9.45;;;5.30;;
38591;SDS011;24356;48.460;11.450;2023-04-05T01:43:29;7.90;;;4.97;;
38591;SDS011;24356;48.460;11.450;2023-04-05T01:45:56;9.98;;;4.68;;
38591;SDS011;24356;48.460;11.450;2023-04-05T01:48:22;8.45;;;4.90;;
38591;SDS011;24356;48.460;11.450;2023-04-05T01:50:47;7.93;;;4.80;;
38591;SDS011;24356;48.460;11.450;2023-04-05T01:53:13;9.93;;;5.10;;
38591;SDS011;24356;48.460;11.450;2023-04-05T01:55:38;8.82;;;5.13;;
38591;SDS011;24356;48.460;11.450;2023-04-05T01:58:04;9.07;;;4.93;;
38591;SDS011;24356;48.460;11.450;2023-04-05T02:00:30;9.20;;;5.07;;
38591;SDS011;24356;48.460;11.450;2023-04-05T02:02:56;9.45;;;5.00;;
38591;SDS011;24356;48.460;11.450;2023-04-05T02:05:22;10.48;;;5.53;;
38591;SDS011;24356;48.460;11.450;2023-04-05T02:07:47;9.25;;;5.13;;
38591;SDS011;24356;48.460;11.450;2023-04-05T02:10:13;8.93;;;5.25;;
38591;SDS011;24356;48.460;11.450;2023-04-05T02:12:39;9.38;;;5.00;;
38591;SDS011;24356;48.460;11.450;2023-04-05T02:15:05;11.93;;;5.07;;
38591;SDS011;24356;48.460;11.450;2023-04-05T02:17:31;8.90;;;5.47;;
38591;SDS011;24356;48.460;11.450;2023-04-05T02:20:02;12.48;;;5.00;;
38591;SDS011;24356;48.460;11.450;2023-04-05T02:22:31;9.60;;;4.97;;
38591;SDS011;24356;48.460;11.450;2023-04-05T02:24:56;10.30;;;5.22;;
38591;SDS011;24356;48.460;11.450;2023-04-05T02:27:22;9.95;;;5.20;;
38591;SDS011;24356;48.460;11.450;2023-04-05T02:29:48;12.40;;;5.68;;
38591;SDS011;24356;48.460;11.450;2023-04-05T02:32:15;15.48;;;6.20;;
38591;SDS011;24356;48.460;11.450;2023-04-05T02:34:41;8.75;;;5.20;;
38591;SDS011;24356;48.460;11.450;2023-04-05T02:37:07;10.73;;;5.38;;
38591;SDS011;24356;48.460;11.450;2023-04-05T02:39:33;11.50;;;5.28;;
38591;SDS011;24356;48.460;11.450;2023-04-05T02:41:58;9.63;;;5.55;;
38591;SDS011;24356;48.460;11.450;2023-04-05T02:44:24;9.43;;;5.43;;
38591;SDS011;24356;48.460;11.450;2023-04-05T02:46:50;10.05;;;5.05;;
38591;SDS011;24356;48.460;11.450;2023-04-05T02:49:15;11.02;;;5.53;;
38591;SDS011;24356;48.460;11.450;2023-04-05T02:51:41;10.18;;;5.60;;
38591;SDS011;24356;48.460;11.450;2023-04-05T02:54:07;10.18;;;5.40;;
38591;SDS011;24356;48.460;11.450;2023-04-05T02:56:32;8.73;;;5.30;;
38591;SDS011;24356;48.460;11.450;2023-04-05T02:58:58;8.95;;;5.35;;
38591;SDS011;24356;48.460;11.450;2023-04-05T03:01:24;10.48;;;5.25;;
38591;SDS011;24356;48.460;11.450;2023-04-05T03:03:49;9.68;;;5.22;;
38591;SDS011;24356;48.460;11.450;2023-04-05T03:06:15;11.60;;;6.05;;
38591;SDS011;24356;48.460;11.450;2023-04-05T03:08:41;11.85;;;5.90;;
38591;SDS011;24356;48.460;11.450;2023-04-05T03:11:11;9.75;;;5.65;;
38591;SDS011;24356;48.460;11.450;2023-04-05T03:13:37;10.20;;;5.38;;
38591;SDS011;24356;48.460;11.450;2023-04-05T03:16:03;10.05;;;5.18;;
38591;SDS011;24356;48.460;11.450;2023-04-05T03:18:29;10.00;;;5.28;;
38591;SDS011;24356;48.460;11.450;2023-04-05T03:20:55;7.20;;;5.28;;
38591;SDS011;24356;48.460;11.450;2023-04-05T03:23:25;10.38;;;5.65;;
38591;SDS011;24356;48.460;11.450;2023-04-05T03:26:03;9.27;;;5.45;;
38591;SDS011;24356;48.460;11.450;2023-04-05T03:28:29;10.55;;;5.40;;
38591;SDS011;24356;48.460;11.450;2023-04-05T03:30:58;9.40;;;5.38;;
38591;SDS011;24356;48.460;11.450;2023-04-05T03:33:23;11.75;;;5.63;;
38591;SDS011;24356;48.460;11.450;2023-04-05T03:35:49;7.70;;;5.30;;
38591;SDS011;24356;48.460;11.450;2023-04-05T03:38:15;9.35;;;5.82;;
38591;SDS011;24356;48.460;11.450;2023-04-05T03:40:40;9.15;;;5.50;;
38591;SDS011;24356;48.460;11.450;2023-04-05T03:43:06;11.55;;;5.75;;
38591;SDS011;24356;48.460;11.450;2023-04-05T03:45:32;8.38;;;5.13;;
38591;SDS011;24356;48.460;11.450;2023-04-05T03:47:58;12.88;;;6.07;;
38591;SDS011;24356;48.460;11.450;2023-04-05T03:50:24;10.75;;;5.57;;
38591;SDS011;24356;48.460;11.450;2023-04-05T03:52:50;9.95;;;5.32;;
38591;SDS011;24356;48.460;11.450;2023-04-05T03:55:17;9.60;;;5.32;;
38591;SDS011;24356;48.460;11.450;2023-04-05T03:57:42;8.70;;;4.90;;
38591;SDS011;24356;48.460;11.450;2023-04-05T04:00:08;11.13;;;5.00;;
38591;SDS011;24356;48.460;11.450;2023-04-05T04:02:45;9.52;;;5.57;;
38591;SDS011;24356;48.460;11.450;2023-04-05T04:05:12;11.27;;;5.47;;
38591;SDS011;24356;48.460;11.450;2023-04-05T04:07:39;8.75;;;4.65;;
38591;SDS011;24356;48.460;11.450;2023-04-05T04:10:09;12.20;;;5.45;;
38591;SDS011;24356;48.460;11.450;2023-04-05T04:12:38;9.38;;;5.50;;
38591;SDS011;24356;48.460;11.450;2023-04-05T04:15:03;10.65;;;5.70;;
38591;SDS011;24356;48.460;11.450;2023-04-05T04:17:33;11.07;;;5.40;;
38591;SDS011;24356;48.460;11.450;2023-04-05T04:20:00;11.18;;;5.20;;
38591;SDS011;24356;48.460;11.450;2023-04-05T04:22:32;9.20;;;5.05;;
38591;SDS011;24356;48.460;11.450;2023-04-05T04:24:58;11.27;;;5.82;;
38591;SDS011;24356;48.460;11.450;2023-04-05T04:27:28;11.75;;;5.57;;
38591;SDS011;24356;48.460;11.450;2023-04-05T04:29:55;7.90;;;4.97;;
38591;SDS011;24356;48.460;11.450;2023-04-05T04:32:26;8.95;;;5.13;;
38591;SDS011;24356;48.460;11.450;2023-04-05T04:35:12;14.50;;;5.78;;
38591;SDS011;24356;48.460;11.450;2023-04-05T04:37:49;8.43;;;5.32;;
38591;SDS011;24356;48.460;11.450;2023-04-05T04:40:30;11.05;;;5.38;;
38591;SDS011;24356;48.460;11.450;2023-04-05T04:43:03;11.55;;;5.50;;
38591;SDS011;24356;48.460;11.450;2023-04-05T04:45:41;8.70;;;5.15;;
38591;SDS011;24356;48.460;11.450;2023-04-05T04:48:11;12.90;;;5.90;;
38591;SDS011;24356;48.460;11.450;2023-04-05T04:50:38;9.45;;;5.38;;
38591;SDS011;24356;48.460;11.450;2023-04-05T04:53:04;11.30;;;6.13;;
38591;SDS011;24356;48.460;11.450;2023-04-05T04:55:30;10.38;;;5.45;;
38591;SDS011;24356;48.460;11.450;2023-04-05T04:57:57;9.05;;;5.15;;
38591;SDS011;24356;48.460;11.450;2023-04-05T05:00:23;12.25;;;5.50;;
38591;SDS011;24356;48.460;11.450;2023-04-05T05:02:50;10.90;;;5.60;;
38591;SDS011;24356;48.460;11.450;2023-04-05T05:05:17;8.32;;;4.95;;
38591;SDS011;24356;48.460;11.450;2023-04-05T05:07:46;9.90;;;5.25;;
38591;SDS011;24356;48.460;11.450;2023-04-05T05:10:12;10.15;;;6.10;;
38591;SDS011;24356;48.460;11.450;2023-04-05T05:12:40;10.75;;;5.45;;
38591;SDS011;24356;48.460;11.450;2023-04-05T05:15:06;8.20;;;5.35;;
38591;SDS011;24356;48.460;11.450;2023-04-05T05:17:33;14.73;;;5.88;;
38591;SDS011;24356;48.460;11.450;2023-04-05T05:19:59;11.15;;;5.78;;
38591;SDS011;24356;48.460;11.450;2023-04-05T05:22:25;16.42;;;5.75;;
38591;SDS011;24356;48.460;11.450;2023-04-05T05:24:52;12.65;;;6.45;;
38591;SDS011;24356;48.460;11.450;2023-04-05T05:27:18;11.60;;;5.90;;
38591;SDS011;24356;48.460;11.450;2023-04-05T05:29:43;11.00;;;5.38;;
38591;SDS011;24356;48.460;11.450;2023-04-05T05:32:09;10.80;;;5.82;;
38591;SDS011;24356;48.460;11.450;2023-04-05T05:34:40;10.02;;;5.65;;
38591;SDS011;24356;48.460;11.450;2023-04-05T05:37:09;11.00;;;5.30;;
38591;SDS011;24356;48.460;11.450;2023-04-05T05:39:36;14.98;;;6.15;;
38591;SDS011;24356;48.460;11.450;2023-04-05T05:42:02;11.73;;;5.35;;
38591;SDS011;24356;48.460;11.450;2023-04-05T05:44:28;13.05;;;6.30;;
38591;SDS011;24356;48.460;11.450;2023-04-05T05:46:54;13.00;;;5.75;;
38591;SDS011;24356;48.460;11.450;2023-04-05T05:49:20;11.25;;;6.10;;
38591;SDS011;24356;48.460;11.450;2023-04-05T05:51:47;11.32;;;5.75;;
38591;SDS011;24356;48.460;11.450;2023-04-05T05:54:13;13.30;;;5.43;;
38591;SDS011;24356;48.460;11.450;2023-04-05T05:56:39;14.27;;;5.82;;
38591;SDS011;24356;48.460;11.450;2023-04-05T05:59:05;12.85;;;5.90;;
38591;SDS011;24356;48.460;11.450;2023-04-05T06:01:31;12.18;;;5.53;;
38591;SDS011;24356;48.460;11.450;2023-04-05T06:04:02;8.93;;;5.05;;
38591;SDS011;24356;48.460;11.450;2023-04-05T06:06:30;10.00;;;5.22;;
38591;SDS011;24356;48.460;11.450;2023-04-05T06:08:58;10.88;;;5.07;;
38591;SDS011;24356;48.460;11.450;2023-04-05T06:11:23;9.07;;;5.15;;
38591;SDS011;24356;48.460;11.450;2023-04-05T06:13:50;9.02;;;5.10;;
38591;SDS011;24356;48.460;11.450;2023-04-05T06:16:19;9.05;;;4.72;;
38591;SDS011;24356;48.460;11.450;2023-04-05T06:18:45;8.40;;;4.47;;
38591;SDS011;24356;48.460;11.450;2023-04-05T06:21:11;8.40;;;4.72;;
38591;SDS011;24356;48.460;11.450;2023-04-05T06:23:37;10.05;;;4.45;;
38591;SDS011;24356;48.460;11.450;2023-04-05T06:26:05;9.38;;;4.20;;
38591;SDS011;24356;48.460;11.450;2023-04-05T06:28:40;9.20;;;3.92;;
38591;SDS011;24356;48.460;11.450;2023-04-05T06:31:06;8.38;;;4.22;;
38591;SDS011;24356;48.460;11.450;2023-04-05T06:33:31;7.55;;;4.63;;
38591;SDS011;24356;48.460;11.450;2023-04-05T06:35:57;10.50;;;5.00;;
38591;SDS011;24356;48.460;11.450;2023-04-05T06:38:22;9.63;;;4.90;;
38591;SDS011;24356;48.460;11.450;2023-04-05T06:40:48;8.98;;;4.60;;
38591;SDS011;24356;48.460;11.450;2023-04-05T06:43:13;10.30;;;4.38;;
38591;SDS011;24356;48.460;11.450;2023-04-05T06:45:39;9.25;;;4.65;;
38591;SDS011;24356;48.460;11.450;2023-04-05T06:48:05;10.90;;;4.85;;
38591;SDS011;24356;48.460;11.450;2023-04-05T06:50:31;9.38;;;4.13;;
38591;SDS011;24356;48.460;11.450;2023-04-05T06:52:57;8.65;;;3.88;;
38591;SDS011;24356;48.460;11.450;2023-04-05T06:55:22;6.78;;;3.22;;
38591;SDS011;24356;48.460;11.450;2023-04-05T06:57:48;6.72;;;3.63;;
38591;SDS011;24356;48.460;11.450;2023-04-05T07:00:14;17.90;;;6.43;;
38591;SDS011;24356;48.460;11.450;2023-04-05T07:02:41;31.10;;;8.63;;
38591;SDS011;24356;48.460;11.450;2023-04-05T07:05:07;7.65;;;4.25;;
38591;SDS011;24356;48.460;11.450;2023-04-05T07:07:33;18.20;;;6.38;;
38591;SDS011;24356;48.460;11.450;2023-04-05T07:10:07;10.63;;;4.45;;
38591;SDS011;24356;48.460;11.450;2023-04-05T07:12:33;12.50;;;5.72;;
38591;SDS011;24356;48.460;11.450;2023-04-05T07:14:59;16.42;;;6.72;;
38591;SDS011;24356;48.460;11.450;2023-04-05T07:17:25;16.98;;;7.25;;
38591;SDS011;24356;48.460;11.450;2023-04-05T07:19:50;14.65;;;5.68;;
38591;SDS011;24356;48.460;11.450;2023-04-05T07:22:16;7.75;;;3.80;;
38591;SDS011;24356;48.460;11.450;2023-04-05T07:24:43;7.07;;;3.33;;
38591;SDS011;24356;48.460;11.450;2023-04-05T07:27:09;8.63;;;3.97;;
38591;SDS011;24356;48.460;11.450;2023-04-05T07:29:35;10.60;;;4.45;;
38591;SDS011;24356;48.460;11.450;2023-04-05T07:32:04;8.60;;;3.67;;
38591;SDS011;24356;48.460;11.450;2023-04-05T07:34:31;9.50;;;4.55;;
38591;SDS011;24356;48.460;11.450;2023-04-05T07:36:57;7.30;;;3.40;;
38591;SDS011;24356;48.460;11.450;2023-04-05T07:39:23;8.60;;;3.40;;
38591;SDS011;24356;48.460;11.450;2023-04-05T07:41:48;5.95;;;3.42;;
38591;SDS011;24356;48.460;11.450;2023-04-05T07:44:14;7.97;;;3.60;;
38591;SDS011;24356;48.460;11.450;2023-04-05T07:46:39;7.22;;;3.55;;
38591;SDS011;24356;48.460;11.450;2023-04-05T07:49:08;6.82;;;3.28;;
38591;SDS011;24356;48.460;11.450;2023-04-05T07:51:34;7.07;;;3.00;;
38591;SDS011;24356;48.460;11.450;2023-04-05T07:54:02;6.50;;;3.20;;
38591;SDS011;24356;48.460;11.450;2023-04-05T07:56:29;5.40;;;2.90;;
38591;SDS011;24356;48.460;11.450;2023-04-05T07:58:55;5.80;;;3.00;;
38591;SDS011;24356;48.460;11.450;2023-04-05T08:01:21;3.90;;;2.75;;
38591;SDS011;24356;48.460;11.450;2023-04-05T08:03:51;9.18;;;2.85;;
38591;SDS011;24356;48.460;11.450;2023-04-05T08:06:17;5.97;;;3.10;;
38591;SDS011;24356;48.460;11.450;2023-04-05T08:08:44;4.63;;;2.80;;
38591;SDS011;24356;48.460;11.450;2023-04-05T08:11:10;5.75;;;2.92;;
38591;SDS011;24356;48.460;11.450;2023-04-05T08:13:36;5.53;;;2.65;;
38591;SDS011;24356;48.460;11.450;2023-04-05T08:16:04;6.28;;;2.53;;
38591;SDS011;24356;48.460;11.450;2023-04-05T08:18:30;5.10;;;2.92;;
38591;SDS011;24356;48.460;11.450;2023-04-05T08:20:56;5.93;;;2.72;;
38591;SDS011;24356;48.460;11.450;2023-04-05T08:23:22;4.93;;;3.25;;
38591;SDS011;24356;48.460;11.450;2023-04-05T08:25:47;5.10;;;2.70;;
38591;SDS011;24356;48.460;11.450;2023-04-05T08:28:13;4.70;;;3.13;;
38591;SDS011;24356;48.460;11.450;2023-04-05T08:30:39;5.72;;;3.15;;
38591;SDS011;24356;48.460;11.450;2023-04-05T08:33:06;4.97;;;2.78;;
38591;SDS011;24356;48.460;11.450;2023-04-05T08:35:31;8.15;;;3.40;;
38591;SDS011;24356;48.460;11.450;2023-04-05T08:38:00;6.70;;;3.60;;
38591;SDS011;24356;48.460;11.450;2023-04-05T08:40:28;5.55;;;3.38;;
38591;SDS011;24356;48.460;11.450;2023-04-05T08:45:35;5.00;;;2.70;;
38591;SDS011;24356;48.460;11.450;2023-04-05T08:48:06;6.88;;;2.80;;
38591;SDS011;24356;48.460;11.450;2023-04-05T08:50:31;8.18;;;2.58;;
38591;SDS011;24356;48.460;11.450;2023-04-05T08:52:57;5.45;;;3.00;;
38591;SDS011;24356;48.460;11.450;2023-04-05T08:55:22;5.20;;;2.42;;
38591;SDS011;24356;48.460;11.450;2023-04-05T08:57:50;5.03;;;2.70;;
38591;SDS011;24356;48.460;11.450;2023-04-05T09:00:22;4.28;;;2.20;;
38591;SDS011;24356;48.460;11.450;2023-04-05T09:02:50;6.22;;;2.38;;
38591;SDS011;24356;48.460;11.450;2023-04-05T09:05:19;4.75;;;2.63;;
38591;SDS011;24356;48.460;11.450;2023-04-05T09:07:47;5.55;;;2.80;;
38591;SDS011;24356;48.460;11.450;2023-04-05T09:10:14;5.15;;;3.08;;
38591;SDS011;24356;48.460;11.450;2023-04-05T09:12:42;5.38;;;2.97;;
38591;SDS011;24356;48.460;11.450;2023-04-05T09:15:08;4.30;;;2.55;;
38591;SDS011;24356;48.460;11.450;2023-04-05T09:17:34;3.97;;;2.60;;
38591;SDS011;24356;48.460;11.450;2023-04-05T09:20:03;5.00;;;3.10;;
38591;SDS011;24356;48.460;11.450;2023-04-05T09:22:29;4.18;;;2.85;;
38591;SDS011;24356;48.460;11.450;2023-04-05T09:24:54;6.07;;;4.05;;
38591;SDS011;24356;48.460;11.450;2023-04-05T09:27:20;6.70;;;3.33;;
38591;SDS011;24356;48.460;11.450;2023-04-05T09:29:47;4.60;;;2.92;;
38591;SDS011;24356;48.460;11.450;2023-04-05T09:32:13;5.07;;;3.05;;
38591;SDS011;24356;48.460;11.450;2023-04-05T09:34:40;6.75;;;2.88;;
38591;SDS011;24356;48.460;11.450;2023-04-05T09:37:17;4.07;;;3.15;;
38591;SDS011;24356;48.460;11.450;2023-04-05T09:39:45;4.93;;;3.08;;
38591;SDS011;24356;48.460;11.450;2023-04-05T09:42:13;4.22;;;2.70;;
38591;SDS011;24356;48.460;11.450;2023-04-05T09:44:47;4.75;;;3.03;;
38591;SDS011;24356;48.460;11.450;2023-04-05T09:47:24;8.63;;;3.22;;
38591;SDS011;24356;48.460;11.450;2023-04-05T09:49:58;4.78;;;3.08;;
38591;SDS011;24356;48.460;11.450;2023-04-05T09:52:28;4.07;;;2.80;;
38591;SDS011;24356;48.460;11.450;2023-04-05T09:55:01;4.97;;;2.90;;
38591;SDS011;24356;48.460;11.450;2023-04-05T09:57:28;4.32;;;2.67;;
38591;SDS011;24356;48.460;11.450;2023-04-05T09:59:58;5.65;;;3.08;;
38591;SDS011;24356;48.460;11.450;2023-04-05T10:02:24;6.60;;;2.88;;
38591;SDS011;24356;48.460;11.450;2023-04-05T10:04:49;6.10;;;3.10;;
38591;SDS011;24356;48.460;11.450;2023-04-05T10:07:16;5.65;;;2.83;;
38591;SDS011;24356;48.460;11.450;2023-04-05T10:09:43;8.38;;;3.30;;
38591;SDS011;24356;48.460;11.450;2023-04-05T10:12:11;5.45;;;3.20;;
38591;SDS011;24356;48.460;11.450;2023-04-05T10:14:45;5.70;;;3.30;;
38591;SDS011;24356;48.460;11.450;2023-04-05T10:17:22;6.05;;;3.20;;
38591;SDS011;24356;48.460;11.450;2023-04-05T10:19:56;4.82;;;2.78;;
38591;SDS011;24356;48.460;11.450;2023-04-05T10:22:32;9.43;;;3.10;;
38591;SDS011;24356;48.460;11.450;2023-04-05T10:27:58;5.32;;;3.08;;
38591;SDS011;24356;48.460;11.450;2023-04-05T10:30:34;5.72;;;2.85;;
38591;SDS011;24356;48.460;11.450;2023-04-05T10:41:29;5.95;;;3.05;;
38591;SDS011;24356;48.460;11.450;2023-04-05T10:44:04;5.78;;;2.92;;
38591;SDS011;24356;48.460;11.450;2023-04-05T10:46:32;7.43;;;2.72;;
38591;SDS011;24356;48.460;11.450;2023-04-05T10:49:21;6.20;;;3.00;;
38591;SDS011;24356;48.460;11.450;2023-04-05T10:51:45;6.28;;;2.85;;
38591;SDS011;24356;48.460;11.450;2023-04-05T10:54:11;5.30;;;2.70;;
38591;SDS011;24356;48.460;11.450;2023-04-05T10:56:38;5.13;;;2.78;;
38591;SDS011;24356;48.460;11.450;2023-04-05T10:59:05;5.63;;;2.65;;
38591;SDS011;24356;48.460;11.450;2023-04-05T11:01:32;4.25;;;2.83;;
38591;SDS011;24356;48.460;11.450;2023-04-05T11:04:09;5.38;;;2.80;;
38591;SDS011;24356;48.460;11.450;2023-04-05T11:06:36;3.80;;;2.80;;
38591;SDS011;24356;48.460;11.450;2023-04-05T11:09:15;5.30;;;3.13;;
38591;SDS011;24356;48.460;11.450;2023-04-05T11:11:43;4.85;;;2.80;;
38591;SDS011;24356;48.460;11.450;2023-04-05T11:17:00;6.50;;;2.53;;
38591;SDS011;24356;48.460;11.450;2023-04-05T11:22:28;6.43;;;2.45;;
38591;SDS011;24356;48.460;11.450;2023-04-05T11:24:55;6.15;;;2.88;;
38591;SDS011;24356;48.460;11.450;2023-04-05T11:27:26;3.67;;;2.50;;
38591;SDS011;24356;48.460;11.450;2023-04-05T11:29:56;4.45;;;2.80;;
38591;SDS011;24356;48.460;11.450;2023-04-05T11:32:22;4.72;;;2.67;;
38591;SDS011;24356;48.460;11.450;2023-04-05T11:35:05;4.45;;;2.85;;
38591;SDS011;24356;48.460;11.450;2023-04-05T11:40:25;6.82;;;3.00;;
38591;SDS011;24356;48.460;11.450;2023-04-05T11:42:57;6.18;;;2.65;;
38591;SDS011;24356;48.460;11.450;2023-04-05T11:45:24;5.75;;;2.63;;
38591;SDS011;24356;48.460;11.450;2023-04-05T11:47:50;4.07;;;2.80;;
38591;SDS011;24356;48.460;11.450;2023-04-05T11:50:15;5.93;;;3.10;;
38591;SDS011;24356;48.460;11.450;2023-04-05T11:52:41;3.30;;;2.53;;
38591;SDS011;24356;48.460;11.450;2023-04-05T11:55:07;5.30;;;2.72;;
38591;SDS011;24356;48.460;11.450;2023-04-05T11:57:34;4.60;;;2.70;;
38591;SDS011;24356;48.460;11.450;2023-04-05T12:00:02;5.28;;;2.63;;
38591;SDS011;24356;48.460;11.450;2023-04-05T12:02:32;4.63;;;2.22;;
38591;SDS011;24356;48.460;11.450;2023-04-05T12:04:58;4.50;;;2.58;;
38591;SDS011;24356;48.460;11.450;2023-04-05T12:07:25;3.53;;;2.72;;
38591;SDS011;24356;48.460;11.450;2023-04-05T12:10:07;4.47;;;2.65;;
38591;SDS011;24356;48.460;11.450;2023-04-05T12:12:40;6.95;;;2.83;;
38591;SDS011;24356;48.460;11.450;2023-04-05T12:15:08;5.60;;;2.83;;
38591;SDS011;24356;48.460;11.450;2023-04-05T12:17:44;4.70;;;2.72;;
38591;SDS011;24356;48.460;11.450;2023-04-05T12:20:14;4.22;;;2.60;;
38591;SDS011;24356;48.460;11.450;2023-04-05T12:22:48;6.05;;;2.55;;
38591;SDS011;24356;48.460;11.450;2023-04-05T12:25:16;6.00;;;3.50;;
38591;SDS011;24356;48.460;11.450;2023-04-05T12:27:43;4.80;;;2.50;;
38591;SDS011;24356;48.460;11.450;2023-04-05T12:30:10;5.60;;;2.70;;
38591;SDS011;24356;48.460;11.450;2023-04-05T12:32:45;3.63;;;2.85;;
38591;SDS011;24356;48.460;11.450;2023-04-05T12:35:14;7.38;;;2.65;;
38591;SDS011;24356;48.460;11.450;2023-04-05T12:37:41;3.83;;;2.63;;
38591;SDS011;24356;48.460;11.450;2023-04-05T12:40:07;4.18;;;2.58;;
38591;SDS011;24356;48.460;11.450;2023-04-05T12:42:34;7.65;;;2.40;;
38591;SDS011;24356;48.460;11.450;2023-04-05T12:45:02;5.15;;;2.50;;
38591;SDS011;24356;48.460;11.450;2023-04-05T12:47:41;2.80;;;2.25;;
38591;SDS011;24356;48.460;11.450;2023-04-05T12:50:13;4.47;;;2.88;;
38591;SDS011;24356;48.460;11.450;2023-04-05T12:52:50;4.93;;;2.47;;
38591;SDS011;24356;48.460;11.450;2023-04-05T12:55:17;4.20;;;2.50;;
38591;SDS011;24356;48.460;11.450;2023-04-05T12:57:42;4.57;;;2.80;;
38591;SDS011;24356;48.460;11.450;2023-04-05T13:00:08;4.28;;;2.60;;
38591;SDS011;24356;48.460;11.450;2023-04-05T13:02:34;5.25;;;2.97;;
38591;SDS011;24356;48.460;11.450;2023-04-05T13:05:00;5.97;;;3.20;;
38591;SDS011;24356;48.460;11.450;2023-04-05T13:07:26;6.50;;;3.10;;
38591;SDS011;24356;48.460;11.450;2023-04-05T13:09:51;5.25;;;2.53;;
38591;SDS011;24356;48.460;11.450;2023-04-05T13:12:17;3.47;;;2.40;;
38591;SDS011;24356;48.460;11.450;2023-04-05T13:14:42;5.63;;;2.83;;
38591;SDS011;24356;48.460;11.450;2023-04-05T13:17:08;5.82;;;2.53;;
38591;SDS011;24356;48.460;11.450;2023-04-05T13:19:33;3.92;;;2.70;;
38591;SDS011;24356;48.460;11.450;2023-04-05T13:21:59;4.93;;;2.75;;
38591;SDS011;24356;48.460;11.450;2023-04-05T13:24:24;5.05;;;2.67;;
38591;SDS011;24356;48.460;11.450;2023-04-05T13:26:50;4.65;;;2.83;;
38591;SDS011;24356;48.460;11.450;2023-04-05T13:29:15;3.30;;;2.60;;
38591;SDS011;24356;48.460;11.450;2023-04-05T13:31:41;5.88;;;2.38;;
38591;SDS011;24356;48.460;11.450;2023-04-05T13:34:07;3.53;;;2.55;;
38591;SDS011;24356;48.460;11.450;2023-04-05T13:36:32;7.50;;;2.40;;
38591;SDS011;24356;48.460;11.450;2023-04-05T13:38:58;5.65;;;2.47;;
38591;SDS011;24356;48.460;11.450;2023-04-05T13:41:23;5.28;;;2.60;;
38591;SDS011;24356;48.460;11.450;2023-04-05T13:43:49;5.07;;;2.28;;
38591;SDS011;24356;48.460;11.450;2023-04-05T13:46:15;6.07;;;2.40;;
38591;SDS011;24356;48.460;11.450;2023-04-05T13:48:40;3.75;;;2.50;;
38591;SDS011;24356;48.460;11.450;2023-04-05T13:51:06;9.63;;;3.78;;
38591;SDS011;24356;48.460;11.450;2023-04-05T13:53:31;7.05;;;3.65;;
38591;SDS011;24356;48.460;11.450;2023-04-05T13:55:57;5.72;;;3.30;;
38591;SDS011;24356;48.460;11.450;2023-04-05T13:58:22;7.85;;;3.95;;
38591;SDS011;24356;48.460;11.450;2023-04-05T14:00:48;5.93;;;3.10;;
38591;SDS011;24356;48.460;11.450;2023-04-05T14:03:14;4.85;;;3.00;;
38591;SDS011;24356;48.460;11.450;2023-04-05T14:05:40;6.63;;;2.75;;
38591;SDS011;24356;48.460;11.450;2023-04-05T14:08:05;4.03;;;2.70;;
38591;SDS011;24356;48.460;11.450;2023-04-05T14:10:31;5.93;;;2.80;;
38591;SDS011;24356;48.460;11.450;2023-04-05T14:12:56;5.07;;;2.78;;
38591;SDS011;24356;48.460;11.450;2023-04-05T14:15:22;3.45;;;2.50;;
38591;SDS011;24356;48.460;11.450;2023-04-05T14:17:47;3.75;;;2.60;;
38591;SDS011;24356;48.460;11.450;2023-04-05T14:20:13;4.03;;;2.58;;
38591;SDS011;24356;48.460;11.450;2023-04-05T14:22:39;4.00;;;2.42;;
38591;SDS011;24356;48.460;11.450;2023-04-05T14:25:04;3.20;;;2.15;;
38591;SDS011;24356;48.460;11.450;2023-04-05T14:27:32;5.93;;;2.78;;
38591;SDS011;24356;48.460;11.450;2023-04-05T14:29:59;4.40;;;2.38;;
38591;SDS011;24356;48.460;11.450;2023-04-05T14:32:25;3.10;;;2.38;;
38591;SDS011;24356;48.460;11.450;2023-04-05T14:34:51;3.10;;;2.30;;
38591;SDS011;24356;48.460;11.450;2023-04-05T14:37:16;5.13;;;2.33;;
38591;SDS011;24356;48.460;11.450;2023-04-05T14:39:42;4.43;;;2.70;;
38591;SDS011;24356;48.460;11.450;2023-04-05T14:42:08;3.50;;;2.28;;
38591;SDS011;24356;48.460;11.450;2023-04-05T14:44:33;6.43;;;2.50;;
38591;SDS011;24356;48.460;11.450;2023-04-05T14:46:59;5.60;;;2.30;;
38591;SDS011;24356;48.460;11.450;2023-04-05T14:49:25;5.07;;;2.58;;
38591;SDS011;24356;48.460;11.450;2023-04-05T14:51:50;5.07;;;2.72;;
38591;SDS011;24356;48.460;11.450;2023-04-05T14:54:16;5.70;;;2.80;;
38591;SDS011;24356;48.460;11.450;2023-04-05T14:56:42;4.32;;;2.67;;
38591;SDS011;24356;48.460;11.450;2023-04-05T14:59:07;4.00;;;2.78;;
38591;SDS011;24356;48.460;11.450;2023-04-05T15:01:33;5.32;;;2.97;;
38591;SDS011;24356;48.460;11.450;2023-04-05T15:04:02;7.60;;;3.20;;
38591;SDS011;24356;48.460;11.450;2023-04-05T15:06:27;4.28;;;2.53;;